createdAt,value
2022-11-18T00:01:23.693Z,99818.13
2022-11-18T00:03:52.101Z,99815.63
2022-11-18T00:06:28.174Z,99824.41
2022-11-18T00:08:58.759Z,99825.94
2022-11-18T00:11:48.051Z,99818.78
2022-11-18T00:14:28.085Z,99819.84
2022-11-18T00:17:03.532Z,99829.84
2022-11-18T00:19:34.374Z,99830.72
2022-11-18T00:22:02.299Z,99830.28
2022-11-18T00:24:29.725Z,99827.59
2022-11-18T00:26:58.901Z,99828.06
2022-11-18T00:29:30.887Z,99829.47
2022-11-18T00:32:00.964Z,99831.13
2022-11-18T00:34:32.383Z,99828.09
2022-11-18T00:36:59.198Z,99838.22
2022-11-18T00:39:28.531Z,99842.97
2022-11-18T00:42:16.219Z,99837.00
2022-11-18T00:44:43.101Z,99840.44
2022-11-18T00:47:12.042Z,99841.66
2022-11-18T00:49:38.875Z,99845.09
2022-11-18T00:52:08.111Z,99836.00
2022-11-18T00:54:37.415Z,99841.06
2022-11-18T00:57:06.821Z,99842.97
2022-11-18T00:59:37.042Z,99844.56
2022-11-18T01:02:06.051Z,99851.13
2022-11-18T01:04:35.385Z,99848.81
2022-11-18T01:07:03.565Z,99857.41
2022-11-18T01:09:32.826Z,99864.91
2022-11-18T01:12:21.906Z,99858.06
2022-11-18T01:14:48.805Z,99857.75
2022-11-18T01:17:18.123Z,99857.00
2022-11-18T01:19:49.309Z,99860.56
2022-11-18T01:22:16.134Z,99870.88
2022-11-18T01:24:42.962Z,99867.03
2022-11-18T01:27:09.801Z,99865.31
2022-11-18T01:29:36.819Z,99865.88
2022-11-18T01:34:50.674Z,99871.31
2022-11-18T01:37:17.531Z,99866.63
2022-11-18T01:39:46.910Z,99871.59
2022-11-18T01:42:17.245Z,99883.59
2022-11-18T01:45:10.878Z,99875.31
2022-11-18T01:47:55.514Z,99876.16
2022-11-18T01:50:23.551Z,99888.31
2022-11-18T01:52:53.313Z,99884.84
2022-11-18T01:55:26.487Z,99893.00
2022-11-18T01:58:07.824Z,99894.66
2022-11-18T02:00:35.308Z,99895.59
2022-11-18T02:03:03.100Z,99895.78
2022-11-18T02:05:34.466Z,99893.34
2022-11-18T02:08:06.467Z,99902.03
2022-11-18T02:10:33.455Z,99897.09
2022-11-18T02:13:03.223Z,99905.78
2022-11-18T02:15:43.911Z,99886.84
2022-11-18T02:18:23.432Z,99907.78
2022-11-18T02:20:56.410Z,99903.69
2022-11-18T02:23:55.542Z,99904.84
2022-11-18T02:26:43.903Z,99901.19
2022-11-18T02:29:18.087Z,99901.88
2022-11-18T02:32:07.714Z,99907.25
2022-11-18T02:34:55.846Z,99910.50
2022-11-18T02:37:33.097Z,99913.31
2022-11-18T02:40:14.071Z,99918.38
2022-11-18T02:42:45.836Z,99909.72
2022-11-18T02:45:20.823Z,99907.69
2022-11-18T02:47:52.344Z,99910.50
2022-11-18T02:50:24.367Z,99915.16
2022-11-18T02:52:57.520Z,99910.25
2022-11-18T02:55:29.848Z,99916.41
2022-11-18T02:57:58.429Z,99914.72
2022-11-18T03:00:25.290Z,99919.94
2022-11-18T03:02:52.241Z,99915.03
2022-11-18T03:05:41.236Z,99920.38
2022-11-18T03:08:17.295Z,99924.31
2022-11-18T03:10:57.600Z,99926.84
2022-11-18T03:13:33.876Z,99930.50
2022-11-18T03:16:10.905Z,99933.91
2022-11-18T03:18:51.211Z,99933.03
2022-11-18T03:21:28.417Z,99936.66
2022-11-18T03:24:22.985Z,99938.94
2022-11-18T03:26:59.171Z,99949.94
2022-11-18T03:29:33.809Z,99953.06
2022-11-18T03:32:11.753Z,99952.22
2022-11-18T03:34:47.532Z,99959.84
2022-11-18T03:37:20.143Z,99961.38
2022-11-18T03:39:54.016Z,99966.59
2022-11-18T03:42:38.522Z,99956.88
2022-11-18T03:45:29.333Z,99953.63
2022-11-18T03:48:11.666Z,99955.88
2022-11-18T03:50:50.573Z,99966.03
2022-11-18T03:53:19.234Z,99974.34
2022-11-18T03:55:52.362Z,99972.94
2022-11-18T03:58:26.869Z,99973.50
2022-11-18T04:01:03.215Z,99967.72
2022-11-18T04:03:32.610Z,99971.94
2022-11-18T04:06:33.260Z,99972.34
2022-11-18T04:09:06.918Z,99970.38
2022-11-18T04:12:02.139Z,99968.28
2022-11-18T04:14:35.179Z,99976.47
2022-11-18T04:17:10.102Z,99979.56
2022-11-18T04:19:40.694Z,99986.19
2022-11-18T04:22:07.948Z,99993.38
2022-11-18T04:24:35.021Z,99986.91
2022-11-18T04:27:05.571Z,99990.56
2022-11-18T04:29:33.837Z,99999.03
2022-11-18T04:32:06.790Z,100000.88
2022-11-18T04:34:33.704Z,100001.84
2022-11-18T04:37:05.189Z,100005.91
2022-11-18T04:39:34.550Z,100003.25
2022-11-18T04:42:03.856Z,100002.41
2022-11-18T04:44:34.829Z,100016.34
2022-11-18T04:47:06.303Z,100010.78
2022-11-18T04:49:36.391Z,100019.69
2022-11-18T04:52:04.136Z,100028.75
2022-11-18T04:54:33.560Z,100016.34
2022-11-18T04:57:03.841Z,100017.34
2022-11-18T04:59:33.287Z,100023.41
2022-11-18T05:02:02.964Z,100024.94
2022-11-18T05:04:32.879Z,100022.41
2022-11-18T05:07:04.921Z,100032.28
2022-11-18T05:09:32.525Z,100028.63
2022-11-18T05:12:19.104Z,100033.28
2022-11-18T05:14:50.065Z,100049.19
2022-11-18T05:17:18.333Z,100052.69
2022-11-18T05:19:47.423Z,100048.00
2022-11-18T05:22:17.800Z,100055.38
2022-11-18T05:24:47.686Z,100044.88
2022-11-18T05:27:15.320Z,100054.59
2022-11-18T05:29:42.312Z,100065.16
2022-11-18T05:32:09.625Z,100060.09
2022-11-18T05:34:36.547Z,100068.94
2022-11-18T05:37:03.575Z,100066.88
2022-11-18T05:39:33.771Z,100066.56
2022-11-18T05:42:21.979Z,100076.00
2022-11-18T05:44:56.196Z,100080.56
2022-11-18T05:47:25.156Z,100078.69
2022-11-18T05:49:51.989Z,100087.31
2022-11-18T05:52:18.813Z,100091.59
2022-11-18T05:54:51.551Z,100091.09
2022-11-18T05:57:20.717Z,100093.38
2022-11-18T05:59:52.222Z,100094.47
2022-11-18T06:02:23.870Z,100103.13
2022-11-18T06:04:59.986Z,100106.34
2022-11-18T06:07:41.068Z,100098.84
2022-11-18T06:10:12.646Z,100106.59
2022-11-18T06:12:43.940Z,100105.28
2022-11-18T06:15:24.517Z,100105.63
2022-11-18T06:18:17.947Z,100114.09
2022-11-18T06:20:48.075Z,100120.97
2022-11-18T06:23:15.336Z,100118.59
2022-11-18T06:25:42.647Z,100120.25
2022-11-18T06:28:10.927Z,100120.94
2022-11-18T06:30:38.540Z,100126.75
2022-11-18T06:33:05.392Z,100140.31
2022-11-18T06:35:32.318Z,100134.56
2022-11-18T06:38:01.303Z,100133.19
2022-11-18T06:40:34.291Z,100138.44
2022-11-18T06:43:27.960Z,100141.84
2022-11-18T06:46:21.760Z,100140.72
2022-11-18T06:48:51.726Z,100150.78
2022-11-18T06:51:19.332Z,100155.63
2022-11-18T06:53:46.574Z,100163.81
2022-11-18T06:56:20.400Z,100165.13
2022-11-18T06:58:52.351Z,100166.28
2022-11-18T07:01:24.885Z,100163.63
2022-11-18T07:03:52.315Z,100163.38
2022-11-18T07:06:25.702Z,100173.16
2022-11-18T07:08:53.061Z,100172.22
2022-11-18T07:11:24.237Z,100177.66
2022-11-18T07:13:51.621Z,100179.13
2022-11-18T07:16:24.887Z,100191.09
2022-11-18T07:18:54.966Z,100196.97
2022-11-18T07:21:29.468Z,100205.00
2022-11-18T07:23:59.764Z,100202.91
2022-11-18T07:26:26.582Z,100210.50
2022-11-18T07:28:58.836Z,100210.94
2022-11-18T07:31:28.695Z,100218.72
2022-11-18T07:33:55.940Z,100218.00
2022-11-18T07:36:29.642Z,100219.22
2022-11-18T07:39:04.060Z,100218.13
2022-11-18T07:41:36.681Z,100218.38
2022-11-18T07:44:07.445Z,100220.47
2022-11-18T07:46:37.232Z,100222.28
2022-11-18T07:49:07.658Z,100238.88
2022-11-18T07:51:37.528Z,100232.75
2022-11-18T07:54:13.479Z,100239.47
2022-11-18T07:56:43.113Z,100246.69
2022-11-18T07:59:10.002Z,100244.75
2022-11-18T08:01:37.186Z,100253.22
2022-11-18T08:04:10.890Z,100257.34
2022-11-18T08:06:41.305Z,100266.16
2022-11-18T08:09:13.207Z,100272.94
2022-11-18T08:11:43.109Z,100269.88
2022-11-18T08:14:10.024Z,100273.63
2022-11-18T08:16:36.871Z,100272.84
2022-11-18T08:19:03.845Z,100281.00
2022-11-18T08:21:32.910Z,100275.91
2022-11-18T08:23:59.737Z,100276.78
2022-11-18T08:26:27.755Z,100287.69
2022-11-18T08:28:54.670Z,100289.56
2022-11-18T08:31:27.827Z,100280.72
2022-11-18T08:34:09.497Z,100279.47
2022-11-18T08:36:38.246Z,100281.19
2022-11-18T08:39:08.450Z,100281.81
2022-11-18T08:41:39.229Z,100286.38
2022-11-18T08:44:07.447Z,100287.66
2022-11-18T08:46:36.903Z,100299.19
2022-11-18T08:49:06.225Z,100306.63
2022-11-18T08:51:37.837Z,100297.84
2022-11-18T08:54:07.177Z,100306.34
2022-11-18T08:56:34.061Z,100316.59
2022-11-18T08:59:08.838Z,100315.59
2022-11-18T09:01:43.561Z,100323.13
2022-11-18T09:04:11.401Z,100320.94
2022-11-18T09:06:42.977Z,100311.94
2022-11-18T09:09:09.852Z,100315.84
2022-11-18T09:11:39.609Z,100324.56
2022-11-18T09:16:56.459Z,100335.66
2022-11-18T09:19:46.148Z,100328.81
2022-11-18T09:22:12.827Z,100343.78
2022-11-18T09:24:44.925Z,100340.53
2022-11-18T09:27:17.383Z,100330.53
2022-11-18T09:29:49.341Z,100344.34
2022-11-18T09:32:16.281Z,100341.94
2022-11-18T09:34:43.154Z,100346.97
2022-11-18T09:37:12.535Z,100348.38
2022-11-18T09:39:39.335Z,100357.72
2022-11-18T09:42:12.587Z,100355.03
2022-11-18T09:45:30.649Z,100368.84
2022-11-18T09:48:02.903Z,100367.84
2022-11-18T09:53:28.030Z,100388.78
2022-11-18T09:56:10.835Z,100389.25
2022-11-18T09:58:41.095Z,100403.41
2022-11-18T10:01:17.158Z,100388.28
2022-11-18T10:03:46.504Z,100390.06
2022-11-18T10:06:29.334Z,100385.75
2022-11-18T10:09:22.805Z,100391.34
2022-11-18T10:12:21.654Z,100398.91
2022-11-18T10:15:23.407Z,100398.88
2022-11-18T10:22:36.992Z,100408.66
2022-11-18T10:25:16.372Z,100416.31
2022-11-18T10:27:49.220Z,100419.75
2022-11-18T10:30:23.197Z,100421.59
2022-11-18T10:33:03.110Z,100426.00
2022-11-18T10:35:42.194Z,100425.09
2022-11-18T10:38:15.062Z,100426.72
2022-11-18T10:40:59.772Z,100422.78
2022-11-18T10:43:48.716Z,100425.75
2022-11-18T10:46:31.686Z,100432.81
2022-11-18T10:49:10.830Z,100434.44
2022-11-18T10:51:43.960Z,100431.63
2022-11-18T10:54:24.750Z,100435.66
2022-11-18T10:57:21.120Z,100432.78
2022-11-18T10:59:59.049Z,100433.75
2022-11-18T11:02:42.584Z,100445.03
2022-11-18T11:05:35.848Z,100438.09
2022-11-18T11:08:37.339Z,100451.59
2022-11-18T11:11:04.788Z,100446.28
2022-11-18T11:13:40.426Z,100451.09
2022-11-18T11:16:10.478Z,100454.13
2022-11-18T11:18:42.473Z,100450.56
2022-11-18T11:21:17.612Z,100450.69
2022-11-18T11:23:46.159Z,100456.53
2022-11-18T11:29:45.984Z,100458.41
2022-11-18T11:32:40.157Z,100462.41
2022-11-18T11:35:23.684Z,100462.56
2022-11-18T11:37:59.538Z,100458.91
2022-11-18T11:40:56.765Z,100477.75
2022-11-18T11:43:39.470Z,100465.44
2022-11-18T11:47:11.414Z,100474.78
2022-11-18T11:50:12.868Z,100472.16
2022-11-18T11:53:00.670Z,100474.75
2022-11-18T11:55:48.089Z,100478.41
2022-11-18T11:58:50.915Z,100484.78
2022-11-18T12:01:36.185Z,100480.03
2022-11-18T12:04:33.212Z,100485.44
2022-11-18T12:07:03.396Z,100485.84
2022-11-18T12:09:33.287Z,100482.03
2022-11-18T12:12:32.841Z,100478.88
2022-11-18T12:15:27.230Z,100486.38
2022-11-18T12:18:12.182Z,100494.06
2022-11-18T12:20:42.425Z,100494.91
2022-11-18T12:23:12.733Z,100495.63
2022-11-18T12:25:51.304Z,100497.91
2022-11-18T12:28:42.651Z,100505.97
2022-11-18T12:31:18.550Z,100497.75
2022-11-18T12:33:56.518Z,100511.50
2022-11-18T12:36:35.000Z,100509.09
2022-11-18T12:39:23.645Z,100498.13
2022-11-18T12:42:14.619Z,100506.78
2022-11-18T12:44:47.745Z,100518.28
2022-11-18T12:47:43.896Z,100517.06
2022-11-18T12:50:15.229Z,100528.03
2022-11-18T12:52:42.029Z,100531.38
2022-11-18T12:55:33.704Z,100531.50
2022-11-18T12:58:03.614Z,100523.97
2022-11-18T13:00:33.211Z,100531.13
2022-11-18T13:03:01.970Z,100527.72
2022-11-18T13:05:33.938Z,100532.97
2022-11-18T13:08:30.534Z,100532.94
2022-11-18T13:11:28.491Z,100532.47
2022-11-18T13:14:14.321Z,100531.72
2022-11-18T13:17:02.437Z,100537.47
2022-11-18T13:19:31.739Z,100531.22
2022-11-18T13:22:30.513Z,100531.66
2022-11-18T13:24:59.801Z,100536.94
2022-11-18T13:27:49.053Z,100539.16
2022-11-18T13:30:17.303Z,100539.84
2022-11-18T13:32:47.528Z,100538.13
2022-11-18T13:35:23.586Z,100541.09
2022-11-18T13:38:02.377Z,100540.63
2022-11-18T13:41:04.494Z,100544.84
2022-11-18T13:43:34.726Z,100555.03
2022-11-18T13:46:18.741Z,100554.28
2022-11-18T13:48:58.110Z,100557.53
2022-11-18T13:51:28.043Z,100556.94
2022-11-18T13:54:00.555Z,100563.94
2022-11-18T13:56:34.892Z,100576.53
2022-11-18T13:59:16.916Z,100568.94
2022-11-18T14:01:45.697Z,100571.19
2022-11-18T14:04:24.311Z,100578.50
2022-11-18T14:06:51.201Z,100578.38
2022-11-18T14:09:27.653Z,100582.50
2022-11-18T14:12:20.250Z,100590.22
2022-11-18T14:14:47.833Z,100587.16
2022-11-18T14:17:23.198Z,100589.75
2022-11-18T14:19:58.579Z,100589.19
2022-11-18T14:22:33.476Z,100592.78
2022-11-18T14:25:31.693Z,100589.97
2022-11-18T14:28:18.762Z,100589.59
2022-11-18T14:31:24.107Z,100598.72
2022-11-18T14:34:15.354Z,100593.00
2022-11-18T14:36:44.687Z,100605.84
2022-11-18T14:39:29.045Z,100610.00
2022-11-18T14:41:57.282Z,100612.59
2022-11-18T14:44:30.612Z,100621.72
2022-11-18T14:47:02.005Z,100622.22
2022-11-18T14:49:34.023Z,100621.00
2022-11-18T14:52:02.888Z,100624.91
2022-11-18T14:54:30.244Z,100634.16
2022-11-18T14:57:05.637Z,100639.50
2022-11-18T14:59:32.741Z,100629.78
2022-11-18T15:02:00.082Z,100629.78
2022-11-18T15:04:27.415Z,100634.88
2022-11-18T15:06:54.632Z,100636.09
2022-11-18T15:09:21.724Z,100629.41
2022-11-18T15:11:48.704Z,100632.69
2022-11-18T15:14:15.989Z,100648.00
2022-11-18T15:16:45.169Z,100647.03
2022-11-18T15:19:16.239Z,100646.53
2022-11-18T15:21:45.263Z,100643.16
2022-11-18T15:24:14.818Z,100651.38
2022-11-18T15:26:47.297Z,100654.06
2022-11-18T15:29:24.919Z,100668.66
2022-11-18T15:31:56.482Z,100669.41
2022-11-18T15:34:23.565Z,100664.63
2022-11-18T15:36:52.689Z,100667.44
2022-11-18T15:39:22.154Z,100663.31
2022-11-18T15:41:51.464Z,100669.28
2022-11-18T15:44:18.697Z,100668.69
2022-11-18T15:46:47.851Z,100668.69
2022-11-18T15:49:16.440Z,100684.03
2022-11-18T15:51:47.937Z,100685.97
2022-11-18T15:54:19.887Z,100696.56
2022-11-18T15:56:47.031Z,100688.91
2022-11-18T15:59:19.497Z,100687.69
2022-11-18T16:01:49.272Z,100697.91
2022-11-18T16:04:19.558Z,100698.75
2022-11-18T16:06:54.302Z,100703.69
2022-11-18T16:09:21.722Z,100702.59
2022-11-18T16:12:06.992Z,100707.38
2022-11-18T16:14:38.076Z,100695.22
2022-11-18T16:17:04.928Z,100706.31
2022-11-18T16:19:33.546Z,100711.53
2022-11-18T16:22:03.071Z,100715.19
2022-11-18T16:24:30.008Z,100725.78
2022-11-18T16:27:27.333Z,100723.94
2022-11-18T16:29:53.917Z,100730.00
2022-11-18T16:32:23.101Z,100720.50
2022-11-18T16:34:50.448Z,100732.69
2022-11-18T16:37:17.342Z,100730.25
2022-11-18T16:39:44.636Z,100729.03
2022-11-18T16:42:14.117Z,100729.75
2022-11-18T16:44:44.197Z,100741.41
2022-11-18T16:47:14.920Z,100741.75
2022-11-18T16:49:47.785Z,100750.88
2022-11-18T16:52:14.705Z,100746.38
2022-11-18T16:54:45.686Z,100751.38
2022-11-18T16:57:13.268Z,100761.53
2022-11-18T16:59:40.429Z,100759.84
2022-11-18T17:02:07.458Z,100753.53
2022-11-18T17:04:36.299Z,100755.63
2022-11-18T17:07:04.140Z,100753.78
2022-11-18T17:09:31.271Z,100754.28
2022-11-18T17:11:58.724Z,100764.97
2022-11-18T17:14:26.423Z,100759.38
2022-11-18T17:16:53.577Z,100772.00
2022-11-18T17:19:23.157Z,100770.06
2022-11-18T17:21:51.702Z,100776.50
2022-11-18T17:24:21.788Z,100775.66
2022-11-18T17:26:52.453Z,100785.84
2022-11-18T17:29:20.301Z,100779.94
2022-11-18T17:31:47.539Z,100774.69
2022-11-18T17:34:16.179Z,100778.22
2022-11-18T17:36:43.603Z,100779.41
2022-11-18T17:39:13.265Z,100773.94
2022-11-18T17:41:59.929Z,100778.84
2022-11-18T17:44:29.142Z,100782.72
2022-11-18T17:46:58.789Z,100785.13
2022-11-18T17:49:28.225Z,100790.19
2022-11-18T17:51:58.133Z,100788.66
2022-11-18T17:54:25.403Z,100793.81
2022-11-18T17:56:53.000Z,100788.97
2022-11-18T17:59:23.185Z,100793.41
2022-11-18T18:01:54.333Z,100796.59
2022-11-18T18:04:25.068Z,100800.59
2022-11-18T18:06:53.053Z,100800.31
2022-11-18T18:09:28.574Z,100813.50
2022-11-18T18:11:58.430Z,100810.66
2022-11-18T18:14:25.309Z,100813.69
2022-11-18T18:16:54.539Z,100828.00
2022-11-18T18:19:23.042Z,100832.31
2022-11-18T18:21:50.707Z,100843.69
2022-11-18T18:24:19.658Z,100852.75
2022-11-18T18:26:46.893Z,100851.09
2022-11-18T18:29:14.135Z,100854.75
2022-11-18T18:31:41.146Z,100854.63
2022-11-18T18:34:08.296Z,100857.19
2022-11-18T18:36:35.739Z,100858.16
2022-11-18T18:39:03.382Z,100859.88
2022-11-18T18:41:33.434Z,100865.22
2022-11-18T18:44:01.340Z,100865.00
2022-11-18T18:46:29.631Z,100873.34
2022-11-18T18:49:08.679Z,100869.72
2022-11-18T18:51:48.938Z,100866.69
2022-11-18T18:54:19.266Z,100869.06
2022-11-18T18:56:51.305Z,100870.34
2022-11-18T18:59:23.281Z,100861.56
2022-11-18T19:01:52.714Z,100873.00
2022-11-18T19:04:22.183Z,100865.84
2022-11-18T19:06:58.952Z,100860.84
2022-11-18T19:09:29.551Z,100873.34
2022-11-18T19:12:15.338Z,100872.50
2022-11-18T19:14:44.512Z,100884.06
2022-11-18T19:17:14.208Z,100884.19
2022-11-18T19:20:01.336Z,100886.84
2022-11-18T19:22:38.272Z,100889.13
2022-11-18T19:25:05.692Z,100888.47
2022-11-18T19:27:33.795Z,100891.78
2022-11-18T19:30:00.732Z,100884.94
2022-11-18T19:32:27.699Z,100891.38
2022-11-18T19:34:54.575Z,100890.28
2022-11-18T19:37:21.410Z,100895.63
2022-11-18T19:39:48.311Z,100900.56
2022-11-18T19:42:17.423Z,100891.47
2022-11-18T19:44:46.696Z,100899.81
2022-11-18T19:47:13.614Z,100901.41
2022-11-18T19:49:40.500Z,100902.69
2022-11-18T19:52:09.439Z,100906.97
2022-11-18T19:54:36.473Z,100904.75
2022-11-18T19:57:05.632Z,100910.31
2022-11-18T19:59:32.585Z,100909.13
2022-11-18T20:02:02.493Z,100918.75
2022-11-18T20:04:29.632Z,100915.66
2022-11-18T20:06:56.881Z,100910.19
2022-11-18T20:09:28.864Z,100914.03
2022-11-18T20:11:55.856Z,100911.47
2022-11-18T20:14:23.070Z,100918.09
2022-11-18T20:16:52.096Z,100924.28
2022-11-18T20:19:22.175Z,100933.06
2022-11-18T20:21:49.518Z,100927.47
2022-11-18T20:24:18.649Z,100923.19
2022-11-18T20:26:48.592Z,100923.31
2022-11-18T20:29:18.302Z,100915.72
2022-11-18T20:31:47.796Z,100921.28
2022-11-18T20:34:15.009Z,100921.19
2022-11-18T20:36:42.860Z,100921.28
2022-11-18T20:39:17.851Z,100925.34
2022-11-18T20:42:05.765Z,100930.88
2022-11-18T20:44:38.388Z,100932.72
2022-11-18T20:47:08.380Z,100938.41
2022-11-18T20:49:35.308Z,100945.91
2022-11-18T20:52:02.319Z,100946.00
2022-11-18T20:54:29.210Z,100953.47
2022-11-18T20:56:56.091Z,100961.03
2022-11-18T20:59:26.234Z,100961.69
2022-11-18T21:01:53.103Z,100974.78
2022-11-18T21:04:22.177Z,100969.19
2022-11-18T21:06:49.151Z,100975.81
2022-11-18T21:09:17.001Z,100975.63
2022-11-18T21:11:44.178Z,100979.66
2022-11-18T21:14:23.479Z,100975.81
2022-11-18T21:17:00.589Z,100979.41
2022-11-18T21:19:28.832Z,100987.25
2022-11-18T21:21:58.968Z,100984.63
2022-11-18T21:24:32.163Z,100983.47
2022-11-18T21:27:00.381Z,100987.09
2022-11-18T21:29:30.852Z,100989.06
2022-11-18T21:32:00.553Z,100992.94
2022-11-18T21:34:27.804Z,100990.31
2022-11-18T21:36:56.869Z,100996.78
2022-11-18T21:39:24.927Z,100997.03
2022-11-18T21:41:56.637Z,101001.59
2022-11-18T21:44:25.166Z,101006.63
2022-11-18T21:46:52.192Z,101007.19
2022-11-18T21:49:19.455Z,101012.94
2022-11-18T21:51:48.647Z,101009.88
2022-11-18T21:54:18.081Z,101009.22
2022-11-18T21:56:45.152Z,101008.75
2022-11-18T21:59:12.045Z,101018.13
2022-11-18T22:01:41.007Z,101007.16
2022-11-18T22:04:07.916Z,101005.72
2022-11-18T22:06:35.091Z,101011.72
2022-11-18T22:09:07.089Z,101027.28
2022-11-18T22:11:33.952Z,101015.81
2022-11-18T22:14:00.797Z,101016.00
2022-11-18T22:16:30.197Z,101023.00
2022-11-18T22:19:01.427Z,101017.13
2022-11-18T22:21:32.087Z,101016.75
2022-11-18T22:24:03.700Z,101011.88
2022-11-18T22:26:32.823Z,101024.25
2022-11-18T22:28:59.663Z,101023.84
2022-11-18T22:31:28.146Z,101030.34
2022-11-18T22:33:56.338Z,101031.69
2022-11-18T22:36:27.857Z,101034.34
2022-11-18T22:38:55.781Z,101030.53
2022-11-18T22:41:45.872Z,101029.41
2022-11-18T22:44:15.319Z,101037.22
2022-11-18T22:46:47.982Z,101037.22
2022-11-18T22:49:17.880Z,101043.03
2022-11-18T22:51:47.381Z,101043.72
2022-11-18T22:57:06.230Z,101056.59
2022-11-18T22:59:35.212Z,101056.97
2022-11-18T23:02:02.222Z,101059.34
2022-11-18T23:04:31.576Z,101060.97
2022-11-18T23:06:58.578Z,101063.34
2022-11-18T23:09:27.812Z,101064.09
2022-11-18T23:12:18.575Z,101062.00
2022-11-18T23:14:47.838Z,101068.47
2022-11-18T23:17:17.278Z,101076.16
2022-11-18T23:19:47.176Z,101076.28
2022-11-18T23:22:14.467Z,101082.84
2022-11-18T23:24:43.921Z,101085.13
2022-11-18T23:27:10.863Z,101093.38
2022-11-18T23:29:37.821Z,101096.06
2022-11-18T23:32:08.295Z,101100.38
2022-11-18T23:34:35.157Z,101096.91
2022-11-18T23:37:04.472Z,101099.78
2022-11-18T23:39:37.273Z,101098.38
2022-11-18T23:42:05.213Z,101098.28
2022-11-18T23:44:47.145Z,101100.47
2022-11-18T23:47:14.121Z,101103.88
2022-11-18T23:49:44.112Z,101102.75
2022-11-18T23:52:11.077Z,101095.88
2022-11-18T23:54:40.524Z,101108.09
2022-11-18T23:57:07.439Z,101109.59
2022-11-18T23:59:34.377Z,101101.81
